Time;durP1;ratioP1;P1;durP2;ratioP2;P2;SDS_P1;SDS_P2;PMS_P1;PMS_P2;Temp;Humidity;BMP_temperature;BMP_pressure;BME280_temperature;BME280_humidity;BME280_pressure;Samples;Min_cycle;Max_cycle;Signal;HPM_P1;HPM_P2
2024/01/09 00:00:35;;;;;;;5.80;2.45;;;-3.20;99.90;;;;;;5005603;28;20488;-92
2024/01/09 00:03:02;;;;;;;6.80;3.00;;;-3.20;99.90;;;;;;4995061;28;20042;-93
2024/01/09 00:05:29;;;;;;;7.07;2.88;;;-3.30;99.90;;;;;;4994507;28;20049;-93
2024/01/09 00:07:56;;;;;;;6.13;2.70;;;-3.30;99.90;;;;;;5006777;28;20412;-93
2024/01/09 00:10:22;;;;;;;6.43;2.85;;;-3.40;99.90;;;;;;4984796;29;20043;-92
2024/01/09 00:12:49;;;;;;;6.85;3.03;;;-3.40;99.90;;;;;;5003404;28;20101;-92
2024/01/09 00:15:15;;;;;;;6.85;2.80;;;-3.40;99.90;;;;;;5000773;28;20456;-92
2024/01/09 00:17:43;;;;;;;6.90;2.72;;;-3.30;99.90;;;;;;4994203;28;20129;-91
2024/01/09 00:20:11;;;;;;;7.20;3.13;;;-3.30;99.90;;;;;;4994430;28;20488;-92
2024/01/09 00:22:37;;;;;;;8.10;3.30;;;-3.40;99.90;;;;;;4997784;28;20137;-92
2024/01/09 00:25:05;;;;;;;6.75;3.10;;;-2.20;99.90;;;;;;5034637;28;20074;-91
2024/01/09 00:27:32;;;;;;;9.25;2.78;;;-3.40;99.90;;;;;;4994009;28;20053;-92
2024/01/09 00:29:59;;;;;;;6.68;2.70;;;-2.10;99.90;;;;;;4994177;28;20403;-92
2024/01/09 00:32:26;;;;;;;7.85;2.95;;;-3.40;99.90;;;;;;4993987;28;20035;-90
2024/01/09 00:34:53;;;;;;;8.13;3.03;;;-3.40;99.90;;;;;;5019414;28;20042;-91
2024/01/09 00:37:20;;;;;;;5.60;2.78;;;-2.20;99.90;;;;;;4999938;28;20036;-92
2024/01/09 00:39:47;;;;;;;8.73;3.47;;;-3.50;99.90;;;;;;4990648;29;20046;-92
2024/01/09 00:42:14;;;;;;;6.82;2.80;;;-3.50;99.90;;;;;;5001473;28;20051;-91
2024/01/09 00:44:41;;;;;;;6.63;2.90;;;-3.50;99.90;;;;;;5003370;28;20169;-93
2024/01/09 00:47:08;;;;;;;6.43;2.88;;;-3.50;99.90;;;;;;4992762;28;20054;-92
2024/01/09 00:49:34;;;;;;;5.82;2.85;;;-3.50;99.90;;;;;;5003836;28;20491;-92
2024/01/09 00:52:02;;;;;;;8.48;3.80;;;-3.50;99.90;;;;;;4995569;28;20043;-91
2024/01/09 00:54:29;;;;;;;6.70;2.75;;;-3.50;99.90;;;;;;4985312;28;20484;-91
2024/01/09 00:56:55;;;;;;;9.35;3.50;;;-3.50;99.90;;;;;;4994989;28;20042;-92
2024/01/09 00:59:22;;;;;;;7.18;2.63;;;-3.60;99.90;;;;;;4996355;28;20074;-92
2024/01/09 01:01:49;;;;;;;7.45;2.80;;;-3.60;99.90;;;;;;5006033;28;20074;-91
2024/01/09 01:04:17;;;;;;;6.00;2.80;;;-3.60;99.90;;;;;;4993050;28;20070;-91
2024/01/09 01:06:45;;;;;;;5.50;2.70;;;-3.50;99.90;;;;;;5009234;28;20049;-91
2024/01/09 01:09:12;;;;;;;7.18;2.90;;;-2.20;99.90;;;;;;5000631;28;20043;-91
2024/01/09 01:11:39;;;;;;;7.38;2.75;;;-3.50;99.90;;;;;;4993247;28;20042;-90
2024/01/09 01:14:06;;;;;;;5.97;2.90;;;-3.60;99.90;;;;;;4993154;28;20121;-91
2024/01/09 01:16:32;;;;;;;8.75;2.88;;;-3.60;99.90;;;;;;5000907;28;20034;-91
2024/01/09 01:18:59;;;;;;;6.35;2.45;;;-3.60;99.90;;;;;;5010765;28;20038;-90
2024/01/09 01:21:26;;;;;;;7.90;2.75;;;-2.20;99.90;;;;;;5012365;28;20051;-91
2024/01/09 01:23:53;;;;;;;7.15;2.60;;;-3.60;99.90;;;;;;4993252;28;20118;-91
2024/01/09 01:26:20;;;;;;;6.13;2.50;;;-2.70;99.90;;;;;;5005186;28;20105;-91
2024/01/09 01:28:46;;;;;;;6.20;2.80;;;-3.70;99.90;;;;;;4980221;28;20094;-91
2024/01/09 01:31:13;;;;;;;8.13;2.60;;;-3.70;99.90;;;;;;4997777;28;20396;-90
2024/01/09 01:33:40;;;;;;;8.88;2.53;;;-3.70;99.90;;;;;;5002318;28;20054;-90
2024/01/09 01:36:13;;;;;;;6.20;2.28;;;-3.70;99.90;;;;;;4998906;28;20043;-91
2024/01/09 01:38:40;;;;;;;6.03;2.53;;;-3.70;99.90;;;;;;4976769;29;20043;-91
2024/01/09 01:41:07;;;;;;;8.23;2.83;;;-2.70;99.90;;;;;;4989985;28;20035;-90
2024/01/09 01:43:34;;;;;;;5.88;2.58;;;-3.80;99.90;;;;;;4998283;28;20102;-90
2024/01/09 01:46:03;;;;;;;5.38;2.67;;;-3.80;99.90;;;;;;4993041;28;20117;-90
2024/01/09 01:48:31;;;;;;;10.13;2.75;;;-3.70;99.90;;;;;;4992187;28;20095;-90
2024/01/09 01:50:58;;;;;;;5.95;2.78;;;-3.70;99.90;;;;;;5008509;28;20074;-91
2024/01/09 01:53:27;;;;;;;5.88;2.63;;;-2.40;99.90;;;;;;4996353;28;20120;-90
2024/01/09 01:55:55;;;;;;;5.88;2.50;;;-3.80;99.90;;;;;;4992712;28;20093;-90
2024/01/09 01:58:24;;;;;;;6.82;2.80;;;-3.80;99.90;;;;;;4992824;28;20046;-90
2024/01/09 02:00:51;;;;;;;6.10;2.80;;;-3.80;99.90;;;;;;4982373;29;20046;-92
2024/01/09 02:03:18;;;;;;;8.95;2.50;;;-3.80;99.90;;;;;;5019986;28;20043;-90
2024/01/09 02:05:46;;;;;;;5.63;2.10;;;-3.80;99.90;;;;;;5017779;28;20122;-90
2024/01/09 02:08:13;;;;;;;6.32;2.80;;;-3.90;99.90;;;;;;5019079;28;20129;-90
2024/01/09 02:10:40;;;;;;;8.55;2.70;;;-3.90;99.90;;;;;;4992625;28;20129;-90
2024/01/09 02:13:07;;;;;;;5.53;2.70;;;-3.80;99.90;;;;;;4992613;28;20077;-90
2024/01/09 02:15:36;;;;;;;6.97;2.92;;;-2.20;99.90;;;;;;4996537;28;20043;-90
2024/01/09 02:18:03;;;;;;;5.97;2.42;;;-3.80;99.90;;;;;;5010381;28;20046;-90
2024/01/09 02:20:30;;;;;;;5.90;3.03;;;-3.80;99.90;;;;;;5020176;28;20066;-90
2024/01/09 02:22:57;;;;;;;6.97;2.70;;;-3.90;99.90;;;;;;5021336;28;20479;-90
2024/01/09 02:25:24;;;;;;;6.72;2.70;;;-3.90;99.90;;;;;;5004393;28;20684;-90
2024/01/09 02:28:15;;;;;;;5.32;2.45;;;-3.90;99.90;;;;;;4990270;28;20047;-90
2024/01/09 02:30:42;;;;;;;7.43;3.00;;;-3.90;99.90;;;;;;5009632;28;20141;-91
2024/01/09 02:33:09;;;;;;;6.38;2.70;;;-3.00;99.90;;;;;;4989854;28;20039;-91
2024/01/09 02:35:36;;;;;;;5.70;2.50;;;-2.60;99.90;;;;;;4992788;29;20035;-91
2024/01/09 02:38:03;;;;;;;5.22;2.60;;;-2.80;99.90;;;;;;5004574;28;20093;-90
2024/01/09 02:40:29;;;;;;;7.55;3.10;;;-4.00;99.90;;;;;;4995722;28;20038;-90
2024/01/09 02:42:56;;;;;;;5.88;2.50;;;-4.00;99.90;;;;;;4992191;28;20530;-88
2024/01/09 02:45:23;;;;;;;6.18;2.60;;;-4.00;99.90;;;;;;4995817;28;20039;-89
2024/01/09 02:47:49;;;;;;;8.02;2.53;;;-4.10;99.90;;;;;;4996417;28;20043;-91
2024/01/09 02:50:16;;;;;;;7.53;2.72;;;-4.20;99.90;;;;;;5031038;28;20582;-91
2024/01/09 02:52:43;;;;;;;7.47;2.67;;;-4.00;99.90;;;;;;5014904;28;20125;-90
2024/01/09 02:55:09;;;;;;;7.63;2.55;;;-4.10;99.90;;;;;;4998864;28;20042;-90
2024/01/09 02:57:40;;;;;;;8.88;2.75;;;-4.10;99.90;;;;;;5009266;28;20125;-91
2024/01/09 03:00:08;;;;;;;6.22;2.63;;;-4.10;99.90;;;;;;5008768;28;20038;-90
2024/01/09 03:02:36;;;;;;;4.85;2.70;;;-4.10;99.90;;;;;;4998786;28;20042;-90
2024/01/09 03:05:09;;;;;;;6.55;2.90;;;-4.20;99.90;;;;;;5003960;28;20046;-91
2024/01/09 03:07:35;;;;;;;6.53;2.95;;;-4.20;99.90;;;;;;4998570;28;20121;-89
2024/01/09 03:10:03;;;;;;;4.82;2.50;;;-4.20;99.90;;;;;;5005522;28;20076;-90
2024/01/09 03:12:29;;;;;;;8.45;2.78;;;-4.20;99.90;;;;;;5018252;28;20133;-91
2024/01/09 03:14:56;;;;;;;8.52;3.05;;;-4.20;99.90;;;;;;5007938;28;20074;-90
2024/01/09 03:17:22;;;;;;;6.78;2.75;;;-4.30;99.90;;;;;;5011477;28;20041;-90
2024/01/09 03:19:49;;;;;;;5.05;2.70;;;-4.30;99.90;;;;;;4990629;28;20464;-91
2024/01/09 03:22:16;;;;;;;7.22;2.58;;;-4.30;99.90;;;;;;5011093;28;20431;-88
2024/01/09 03:24:43;;;;;;;7.43;3.20;;;-4.30;99.90;;;;;;4989579;28;20451;-91
2024/01/09 03:27:09;;;;;;;11.73;3.00;;;-4.30;99.90;;;;;;4998063;28;20125;-91
2024/01/09 03:29:36;;;;;;;6.57;2.80;;;-4.30;99.90;;;;;;4998331;28;20497;-89
2024/01/09 03:32:04;;;;;;;6.30;2.70;;;-4.30;99.90;;;;;;5016068;28;20117;-91
2024/01/09 03:34:31;;;;;;;9.68;3.13;;;-4.30;99.90;;;;;;5030606;28;20380;-91
2024/01/09 03:36:57;;;;;;;5.85;2.80;;;-4.30;99.90;;;;;;5015333;28;20045;-90
2024/01/09 03:39:24;;;;;;;5.70;2.58;;;-4.30;99.90;;;;;;5017630;28;20042;-90
2024/01/09 03:41:52;;;;;;;5.97;2.80;;;-4.40;99.90;;;;;;5000659;28;20193;-90
2024/01/09 03:44:18;;;;;;;6.38;2.78;;;-4.40;99.90;;;;;;4997977;28;20052;-91
2024/01/09 03:46:45;;;;;;;6.70;3.25;;;-4.50;99.90;;;;;;5011068;28;20061;-90
2024/01/09 03:49:12;;;;;;;7.40;2.67;;;-4.50;99.90;;;;;;4999403;28;20062;-90
2024/01/09 03:51:38;;;;;;;7.40;3.30;;;-4.00;99.90;;;;;;5004546;28;20419;-90
2024/01/09 03:54:05;;;;;;;7.50;3.30;;;-4.60;99.90;;;;;;5006114;28;20030;-89
2024/01/09 03:56:31;;;;;;;7.40;3.33;;;-4.50;99.90;;;;;;5002583;28;20061;-90
2024/01/09 03:58:58;;;;;;;8.15;2.75;;;-3.00;99.90;;;;;;4997891;28;20061;-89
2024/01/09 04:01:25;;;;;;;6.40;2.83;;;-4.50;99.90;;;;;;4997986;28;20092;-91
2024/01/09 04:03:51;;;;;;;8.23;3.10;;;-3.00;99.90;;;;;;5013815;28;20115;-89
2024/01/09 04:06:18;;;;;;;7.50;3.17;;;-5.70;99.90;;;;;;5000537;28;20038;-89
2024/01/09 04:08:46;;;;;;;6.93;3.13;;;-4.20;99.90;;;;;;5007155;28;20104;-90
2024/01/09 04:11:12;;;;;;;9.32;3.30;;;-4.60;99.90;;;;;;4996963;28;20050;-90
2024/01/09 04:13:40;;;;;;;7.97;3.38;;;-4.60;99.90;;;;;;4987414;28;20035;-91
2024/01/09 04:16:11;;;;;;;11.63;4.05;;;-4.60;99.90;;;;;;4994653;28;20042;-91
2024/01/09 04:18:38;;;;;;;9.50;3.53;;;-4.60;99.90;;;;;;5005243;28;20614;-90
2024/01/09 04:21:05;;;;;;;6.03;2.85;;;-4.60;99.90;;;;;;4984589;28;20062;-90
2024/01/09 04:23:31;;;;;;;5.85;2.67;;;-4.70;99.90;;;;;;5004104;28;20038;-90
2024/01/09 04:25:58;;;;;;;8.90;2.90;;;-3.40;99.90;;;;;;4997033;28;20038;-90
2024/01/09 04:28:25;;;;;;;6.18;2.70;;;-4.60;99.90;;;;;;4997472;28;20077;-90
2024/01/09 04:30:51;;;;;;;10.10;3.33;;;-4.70;99.90;;;;;;4991592;28;20122;-90
2024/01/09 04:33:18;;;;;;;6.03;3.10;;;-4.70;99.90;;;;;;5002619;28;20046;-90
2024/01/09 04:35:44;;;;;;;7.25;3.30;;;-3.40;99.90;;;;;;4990466;28;20039;-89
2024/01/09 04:38:11;;;;;;;9.65;3.00;;;-4.70;99.90;;;;;;4996921;28;20422;-88
2024/01/09 04:40:38;;;;;;;7.35;3.30;;;-4.70;99.90;;;;;;4984621;28;20039;-90
2024/01/09 04:43:04;;;;;;;8.07;3.03;;;-4.80;99.90;;;;;;4997319;28;20084;-90
2024/01/09 04:45:31;;;;;;;5.63;2.72;;;-4.80;99.90;;;;;;5015876;28;20591;-89
2024/01/09 04:47:57;;;;;;;6.80;2.83;;;-4.70;99.90;;;;;;5014141;28;20092;-90
2024/01/09 04:50:24;;;;;;;5.85;2.92;;;-5.00;99.90;;;;;;4994611;28;20054;-90
2024/01/09 04:52:51;;;;;;;10.88;3.20;;;-4.80;99.90;;;;;;5012575;28;20423;-90
2024/01/09 04:55:17;;;;;;;7.45;2.70;;;-4.80;99.90;;;;;;5001060;28;20038;-90
2024/01/09 04:57:44;;;;;;;6.53;3.13;;;-4.80;99.90;;;;;;5015885;28;20034;-90
2024/01/09 05:00:11;;;;;;;8.82;3.17;;;-4.90;99.90;;;;;;4997901;28;20046;-89
2024/01/09 05:02:38;;;;;;;6.90;2.78;;;-4.90;99.90;;;;;;4996328;28;20384;-90
2024/01/09 05:05:05;;;;;;;5.72;2.67;;;-4.90;99.90;;;;;;4996446;28;20038;-89
2024/01/09 05:07:31;;;;;;;5.63;2.85;;;-4.90;99.90;;;;;;4996686;28;20475;-89
2024/01/09 05:09:58;;;;;;;9.82;3.20;;;-5.20;99.90;;;;;;4996566;28;20049;-89
2024/01/09 05:12:25;;;;;;;8.40;3.10;;;-4.70;99.90;;;;;;5012020;28;20077;-89
2024/01/09 05:14:51;;;;;;;9.07;3.50;;;-4.90;99.90;;;;;;4996640;28;20072;-90
2024/01/09 05:17:18;;;;;;;7.63;3.10;;;-4.90;99.90;;;;;;5000185;28;20039;-89
2024/01/09 05:19:44;;;;;;;7.82;3.15;;;-4.90;99.90;;;;;;5000086;28;20035;-90
2024/01/09 05:22:11;;;;;;;10.15;3.63;;;-4.90;99.90;;;;;;4990344;28;20046;-88
2024/01/09 05:24:38;;;;;;;7.75;3.10;;;-4.90;99.90;;;;;;5001476;28;20569;-90
2024/01/09 05:27:04;;;;;;;6.47;3.22;;;-5.00;99.90;;;;;;4999357;28;20046;-89
2024/01/09 05:29:31;;;;;;;5.30;2.72;;;-4.90;99.90;;;;;;4985465;28;20046;-89
2024/01/09 05:31:58;;;;;;;7.00;3.30;;;-4.90;99.90;;;;;;5004517;28;20046;-89
2024/01/09 05:34:24;;;;;;;6.95;3.20;;;-5.00;99.90;;;;;;5006920;28;20073;-88
2024/01/09 05:36:51;;;;;;;6.15;3.13;;;-5.00;99.90;;;;;;5008928;28;20077;-89
2024/01/09 05:39:18;;;;;;;5.90;2.60;;;-4.30;99.90;;;;;;5012821;28;20041;-88
2024/01/09 05:41:44;;;;;;;10.55;3.63;;;-3.60;99.90;;;;;;4999038;28;20125;-89
2024/01/09 05:44:11;;;;;;;7.40;3.00;;;-5.00;99.90;;;;;;5000423;28;20042;-89
2024/01/09 05:46:37;;;;;;;6.32;3.03;;;-5.00;99.90;;;;;;4995768;28;20043;-89
2024/01/09 05:49:04;;;;;;;7.18;3.20;;;-5.10;99.90;;;;;;4994474;28;20118;-89
2024/01/09 05:51:32;;;;;;;8.40;3.20;;;-5.10;99.90;;;;;;5006030;28;20034;-88
2024/01/09 05:53:59;;;;;;;7.68;3.03;;;-5.10;99.90;;;;;;5024435;28;20038;-88
2024/01/09 05:56:25;;;;;;;7.13;3.10;;;-5.30;99.90;;;;;;5005979;28;20045;-89
2024/01/09 05:58:52;;;;;;;9.18;2.85;;;-5.20;99.90;;;;;;4996655;28;20124;-87
2024/01/09 06:01:19;;;;;;;7.28;3.00;;;-5.10;99.90;;;;;;4996305;28;20101;-88
2024/01/09 06:03:46;;;;;;;8.05;3.03;;;-5.20;99.90;;;;;;5019346;28;20038;-88
2024/01/09 06:06:12;;;;;;;6.50;2.95;;;-3.60;99.90;;;;;;5022283;28;20061;-89
2024/01/09 06:08:39;;;;;;;8.15;3.08;;;-5.10;99.90;;;;;;5026425;28;20038;-89
2024/01/09 06:11:06;;;;;;;7.82;3.05;;;-5.10;99.90;;;;;;5002367;28;20041;-89
2024/01/09 06:13:32;;;;;;;8.65;3.45;;;-5.10;99.90;;;;;;5004602;28;20074;-89
2024/01/09 06:15:59;;;;;;;6.80;3.33;;;-4.50;99.90;;;;;;5016697;28;20035;-89
2024/01/09 06:18:26;;;;;;;7.45;2.83;;;-5.20;99.90;;;;;;5012668;28;20045;-89
2024/01/09 06:20:53;;;;;;;6.65;3.08;;;-5.20;99.90;;;;;;5005221;28;20042;-87
2024/01/09 06:23:19;;;;;;;7.97;3.05;;;-5.20;99.90;;;;;;5008924;28;20104;-89
2024/01/09 06:25:46;;;;;;;6.30;2.42;;;-5.20;99.90;;;;;;4989507;28;20066;-88
2024/01/09 06:28:12;;;;;;;7.50;3.17;;;-5.20;99.90;;;;;;5015023;28;20515;-89
2024/01/09 06:30:39;;;;;;;8.20;2.95;;;-5.40;99.90;;;;;;4997312;28;20046;-88
2024/01/09 06:33:06;;;;;;;7.15;3.28;;;-5.20;99.90;;;;;;4998439;28;20038;-89
2024/01/09 06:35:32;;;;;;;7.75;2.65;;;-4.00;99.90;;;;;;4994879;28;20038;-88
2024/01/09 06:37:59;;;;;;;6.55;3.13;;;-5.50;99.90;;;;;;5021021;28;20034;-88
2024/01/09 06:40:26;;;;;;;6.55;3.50;;;-5.30;99.90;;;;;;5013611;28;20034;-88
2024/01/09 06:42:52;;;;;;;5.70;2.95;;;-5.30;99.90;;;;;;5002973;28;20042;-88
2024/01/09 06:45:19;;;;;;;6.57;3.35;;;-5.40;99.90;;;;;;4994627;28;20415;-89
2024/01/09 06:47:46;;;;;;;6.15;2.90;;;-5.30;99.90;;;;;;5004232;28;20399;-88
2024/01/09 06:50:13;;;;;;;8.88;3.38;;;-5.50;99.90;;;;;;4978051;29;20186;-89
2024/01/09 06:52:39;;;;;;;7.57;3.00;;;-5.30;99.90;;;;;;4975563;29;20086;-89
2024/01/09 06:55:06;;;;;;;9.35;3.25;;;-5.30;99.90;;;;;;4979484;28;20053;-88
2024/01/09 06:57:33;;;;;;;8.93;3.47;;;-5.30;99.90;;;;;;4984994;29;20035;-88
2024/01/09 07:00:00;;;;;;;6.93;2.78;;;-4.30;99.90;;;;;;4988381;29;20090;-89
2024/01/09 07:02:26;;;;;;;6.38;3.00;;;-5.40;99.90;;;;;;4975699;29;20090;-87
2024/01/09 07:04:53;;;;;;;10.20;3.95;;;-5.30;99.90;;;;;;4971419;29;20040;-89
2024/01/09 07:07:20;;;;;;;9.85;3.50;;;-5.40;99.90;;;;;;4994118;28;20050;-88
2024/01/09 07:09:47;;;;;;;7.95;3.78;;;-5.40;99.90;;;;;;4994490;28;20411;-88
2024/01/09 07:12:16;;;;;;;8.85;3.85;;;-5.40;99.90;;;;;;4983375;29;20043;-89
2024/01/09 07:14:43;;;;;;;9.13;3.38;;;-3.70;99.90;;;;;;4975221;29;20082;-87
2024/01/09 07:17:10;;;;;;;7.65;3.60;;;-5.50;99.90;;;;;;4980953;29;20377;-88
2024/01/09 07:19:37;;;;;;;9.02;3.63;;;-4.90;99.90;;;;;;4962527;29;20046;-88
2024/01/09 07:22:04;;;;;;;9.75;3.42;;;-5.40;99.90;;;;;;4962852;28;20378;-88
2024/01/09 07:24:30;;;;;;;9.93;4.05;;;-5.40;99.90;;;;;;4985522;29;20039;-89
2024/01/09 07:26:57;;;;;;;8.13;3.58;;;-5.40;99.90;;;;;;4991657;28;20050;-88
2024/01/09 07:29:24;;;;;;;9.32;3.08;;;-5.40;99.90;;;;;;4990293;29;20050;-88
2024/01/09 07:31:50;;;;;;;10.35;3.47;;;-5.40;99.90;;;;;;4962423;29;20043;-88
2024/01/09 07:34:17;;;;;;;8.02;3.88;;;-5.40;99.90;;;;;;4965004;28;20095;-88
2024/01/09 07:36:44;;;;;;;8.07;3.50;;;-5.50;99.90;;;;;;4993568;28;20126;-88
2024/01/09 07:39:12;;;;;;;8.52;3.80;;;-5.50;99.90;;;;;;4979413;29;20039;-89
2024/01/09 07:41:38;;;;;;;7.45;3.65;;;-5.50;99.90;;;;;;4974085;29;20039;-89
2024/01/09 07:44:06;;;;;;;11.73;4.18;;;-5.60;99.90;;;;;;4961795;29;20188;-88
2024/01/09 07:46:33;;;;;;;8.27;3.42;;;-4.20;99.90;;;;;;4990597;28;20074;-89
2024/01/09 07:49:00;;;;;;;8.23;3.60;;;-4.10;99.90;;;;;;4981369;28;20134;-89
2024/01/09 07:51:26;;;;;;;7.97;3.45;;;-4.50;99.90;;;;;;5012707;28;20042;-88
2024/01/09 07:53:53;;;;;;;8.35;3.95;;;-5.90;99.90;;;;;;4992563;28;20116;-89
2024/01/09 07:56:21;;;;;;;8.07;3.50;;;-5.50;99.90;;;;;;4980604;28;20046;-89
2024/01/09 07:58:48;;;;;;;9.52;3.63;;;-5.70;99.90;;;;;;4997349;28;20066;-89
2024/01/09 08:01:16;;;;;;;8.68;4.00;;;-5.50;99.90;;;;;;4990522;28;20078;-89
2024/01/09 08:03:43;;;;;;;8.68;3.40;;;-5.50;99.90;;;;;;4997203;28;20035;-89
2024/01/09 08:06:14;;;;;;;7.53;3.55;;;-5.50;99.90;;;;;;4983612;28;20506;-90
2024/01/09 08:08:42;;;;;;;10.20;3.83;;;-5.50;99.90;;;;;;4983407;28;20026;-91
2024/01/09 08:11:09;;;;;;;7.35;3.45;;;-5.50;99.90;;;;;;4993899;28;20038;-88
2024/01/09 08:13:37;;;;;;;8.50;3.63;;;-4.00;99.90;;;;;;4993031;28;20501;-88
2024/01/09 08:16:05;;;;;;;9.15;4.13;;;-5.40;99.90;;;;;;4989187;28;20046;-88
2024/01/09 08:18:32;;;;;;;10.75;3.90;;;-5.40;99.90;;;;;;4979988;28;20137;-88
2024/01/09 08:20:59;;;;;;;8.70;3.72;;;-5.50;99.90;;;;;;4994167;28;20085;-87
2024/01/09 08:23:26;;;;;;;7.72;3.42;;;-5.40;99.90;;;;;;4998032;28;20082;-86
2024/01/09 08:25:52;;;;;;;9.00;3.97;;;-5.40;99.90;;;;;;5006519;28;20045;-87
2024/01/09 08:28:19;;;;;;;8.73;3.90;;;-5.40;99.90;;;;;;5002310;28;20049;-88
2024/01/09 08:30:46;;;;;;;6.50;3.30;;;-5.40;99.90;;;;;;4993228;28;20039;-87
2024/01/09 08:33:12;;;;;;;7.25;3.53;;;-5.30;99.90;;;;;;5014420;28;20047;-88
2024/01/09 08:35:39;;;;;;;10.63;4.47;;;-5.30;99.90;;;;;;4992771;28;20039;-88
2024/01/09 08:38:06;;;;;;;9.27;4.25;;;-5.30;99.90;;;;;;4982852;28;20129;-87
2024/01/09 08:40:33;;;;;;;7.95;3.90;;;-4.10;99.90;;;;;;4992190;28;20114;-87
2024/01/09 08:42:59;;;;;;;7.25;3.15;;;-5.30;99.90;;;;;;4982098;28;20503;-87
2024/01/09 08:45:26;;;;;;;9.05;3.95;;;-5.20;99.90;;;;;;4996165;28;20047;-87
2024/01/09 08:47:53;;;;;;;6.65;3.40;;;-5.20;99.90;;;;;;4997627;28;20054;-88
2024/01/09 08:50:19;;;;;;;8.10;3.40;;;-5.20;99.90;;;;;;4980604;28;20144;-87
2024/01/09 08:52:46;;;;;;;8.80;4.05;;;-5.20;99.90;;;;;;5003160;28;20039;-88
2024/01/09 08:55:12;;;;;;;8.13;4.10;;;-5.10;99.90;;;;;;4991300;28;20181;-82
2024/01/09 08:57:39;;;;;;;13.30;5.10;;;-5.10;99.90;;;;;;4992896;28;20126;-82
2024/01/09 09:00:07;;;;;;;9.77;4.10;;;-4.00;99.90;;;;;;4978204;28;20180;-82
2024/01/09 09:02:34;;;;;;;12.18;4.38;;;-5.00;99.90;;;;;;5000982;28;20516;-81
2024/01/09 09:05:01;;;;;;;10.25;4.57;;;-3.60;99.90;;;;;;4991434;28;20061;-82
2024/01/09 09:07:27;;;;;;;7.90;4.00;;;-4.90;99.90;;;;;;4987587;28;20043;-81
2024/01/09 09:09:54;;;;;;;9.15;3.80;;;-4.90;99.90;;;;;;4991596;28;20046;-81
2024/01/09 09:12:21;;;;;;;9.00;3.80;;;-4.80;99.90;;;;;;4998953;28;20118;-80
2024/01/09 09:14:47;;;;;;;7.65;3.70;;;-4.80;99.90;;;;;;5001455;28;20114;-81
2024/01/09 09:17:16;;;;;;;9.52;4.05;;;-4.70;99.90;;;;;;4994816;28;20094;-81
2024/01/09 09:19:42;;;;;;;7.43;3.97;;;-4.70;99.90;;;;;;5004700;28;20051;-80
2024/01/09 09:22:10;;;;;;;7.22;3.90;;;-4.60;99.90;;;;;;5010698;28;20042;-81
2024/01/09 09:24:37;;;;;;;7.55;3.80;;;-4.60;99.90;;;;;;4990420;28;20047;-81
2024/01/09 09:27:04;;;;;;;7.47;3.65;;;-4.60;99.90;;;;;;4993210;28;20035;-81
2024/01/09 09:29:31;;;;;;;8.38;4.43;;;-4.60;99.90;;;;;;4993664;28;20403;-81
2024/01/09 09:31:58;;;;;;;8.65;3.58;;;-4.40;99.90;;;;;;5025253;28;20125;-81
2024/01/09 09:34:24;;;;;;;7.45;3.47;;;-4.40;99.90;;;;;;5006488;28;20049;-81
2024/01/09 09:36:51;;;;;;;6.82;3.30;;;-4.40;99.90;;;;;;4997769;28;20039;-81
2024/01/09 09:39:18;;;;;;;7.78;3.58;;;-4.40;99.90;;;;;;4983098;28;20046;-81
2024/01/09 09:41:47;;;;;;;7.68;3.83;;;-4.40;99.90;;;;;;5013716;28;20526;-81
2024/01/09 09:44:15;;;;;;;10.30;3.53;;;-4.30;99.90;;;;;;4992365;28;20042;-81
2024/01/09 09:46:44;;;;;;;7.82;3.45;;;-4.30;99.90;;;;;;4997508;28;20097;-81
2024/01/09 09:49:11;;;;;;;8.07;3.70;;;-4.20;99.90;;;;;;4988239;28;20097;-81
2024/01/09 09:51:38;;;;;;;8.75;3.50;;;-4.20;99.90;;;;;;4987163;28;20051;-81
2024/01/09 09:54:08;;;;;;;7.30;3.35;;;-3.60;99.90;;;;;;4990385;28;20503;-81
2024/01/09 09:56:35;;;;;;;7.80;3.22;;;-4.10;99.90;;;;;;4986956;28;20046;-82
2024/01/09 09:59:02;;;;;;;9.85;4.13;;;-4.00;99.90;;;;;;4981424;28;20046;-81
2024/01/09 10:01:29;;;;;;;7.13;3.38;;;-3.90;99.90;;;;;;5003220;28;20034;-81
2024/01/09 10:04:02;;;;;;;7.88;3.58;;;-3.90;99.90;;;;;;5005107;28;20388;-82
2024/01/09 10:06:29;;;;;;;7.85;3.38;;;-3.80;99.90;;;;;;4994590;28;20038;-82
2024/01/09 10:08:56;;;;;;;8.35;3.60;;;-3.80;99.90;;;;;;4985753;28;20047;-82
2024/01/09 10:11:23;;;;;;;8.75;3.40;;;-3.90;99.90;;;;;;4993508;28;20106;-83
2024/01/09 10:13:50;;;;;;;7.22;3.15;;;-3.70;99.90;;;;;;4979308;28;20046;-81
2024/01/09 10:16:17;;;;;;;7.07;3.15;;;-3.60;99.90;;;;;;4999438;28;20035;-82
2024/01/09 10:18:45;;;;;;;6.53;2.83;;;-3.50;99.90;;;;;;5010192;28;20046;-82
2024/01/09 10:21:11;;;;;;;6.00;2.95;;;-2.80;99.90;;;;;;4999069;28;20483;-82
2024/01/09 10:23:39;;;;;;;6.82;3.17;;;-3.50;99.90;;;;;;4992859;28;20046;-81
2024/01/09 10:26:12;;;;;;;4.63;2.60;;;-3.40;99.90;;;;;;4995212;28;20126;-82
2024/01/09 10:28:39;;;;;;;8.32;3.35;;;-3.30;99.90;;;;;;5001749;28;20039;-83
2024/01/09 10:31:07;;;;;;;6.60;2.95;;;-4.30;99.90;;;;;;4985247;28;20113;-82
2024/01/09 10:33:40;;;;;;;5.40;2.50;;;-1.80;99.90;;;;;;4997380;28;20042;-81
2024/01/09 10:36:07;;;;;;;7.50;3.28;;;-3.20;99.90;;;;;;5017125;28;20035;-82
2024/01/09 10:38:34;;;;;;;6.38;2.67;;;-3.10;99.90;;;;;;5006748;28;20031;-82
2024/01/09 10:41:17;;;;;;;7.03;3.20;;;-3.20;99.90;;;;;;5003888;28;20050;-82
2024/01/09 10:43:44;;;;;;;5.60;2.65;;;-3.00;99.90;;;;;;4981191;28;20058;-81
2024/01/09 10:46:11;;;;;;;6.82;2.70;;;-3.00;99.90;;;;;;4996721;28;20035;-81
2024/01/09 10:48:41;;;;;;;5.60;2.53;;;-3.00;99.90;;;;;;5005820;28;20039;-81
2024/01/09 10:51:11;;;;;;;6.80;3.08;;;-2.90;99.90;;;;;;4993490;28;20054;-81
2024/01/09 10:53:40;;;;;;;7.32;3.15;;;-2.50;99.90;;;;;;5038305;28;20039;-82
2024/01/09 10:56:09;;;;;;;5.90;2.50;;;-2.80;99.90;;;;;;5010032;28;20035;-82
2024/01/09 10:58:36;;;;;;;5.88;2.55;;;-1.40;99.90;;;;;;4986928;28;20042;-83
2024/01/09 11:01:03;;;;;;;8.43;2.92;;;-2.80;99.90;;;;;;4996073;28;20046;-83
2024/01/09 11:03:30;;;;;;;6.82;3.15;;;-2.70;99.90;;;;;;5007550;28;20043;-82
2024/01/09 11:05:59;;;;;;;6.85;2.70;;;-1.60;99.90;;;;;;4994067;28;20415;-83
2024/01/09 11:08:26;;;;;;;5.93;2.55;;;-2.60;99.90;;;;;;5000718;28;20050;-82
2024/01/09 11:10:54;;;;;;;5.10;2.55;;;-2.60;99.90;;;;;;5005420;28;20067;-83
2024/01/09 11:13:23;;;;;;;4.75;2.30;;;-2.60;99.90;;;;;;4998288;28;20459;-83
2024/01/09 11:15:54;;;;;;;5.72;2.47;;;-2.10;99.90;;;;;;4995898;28;20031;-83
2024/01/09 11:18:22;;;;;;;4.85;2.58;;;-2.50;99.90;;;;;;5000533;28;20132;-83
2024/01/09 11:21:00;;;;;;;7.13;2.58;;;-2.50;99.90;;;;;;4999716;28;20038;-83
2024/01/09 11:24:05;;;;;;;5.95;2.38;;;-2.40;99.90;;;;;;5011114;28;20042;-81
2024/01/09 11:26:37;;;;;;;5.68;2.35;;;-2.40;99.90;;;;;;4983548;28;20087;-82
2024/01/09 11:29:04;;;;;;;5.45;2.65;;;-2.40;99.90;;;;;;4988171;28;20395;-82
2024/01/09 11:31:33;;;;;;;5.75;2.60;;;-2.30;99.90;;;;;;4977294;28;20066;-83
2024/01/09 11:34:02;;;;;;;6.97;2.28;;;-2.30;99.90;;;;;;4994607;28;20038;-82
2024/01/09 11:36:33;;;;;;;5.90;2.30;;;-2.20;99.90;;;;;;5003388;28;20046;-83
2024/01/09 11:39:00;;;;;;;5.43;2.38;;;-2.20;99.90;;;;;;4996114;28;20038;-82
2024/01/09 11:41:32;;;;;;;3.92;2.05;;;-2.20;99.90;;;;;;4997413;28;20041;-82
2024/01/09 11:44:00;;;;;;;5.75;2.28;;;-2.10;99.90;;;;;;5021407;28;20034;-83
2024/01/09 11:46:29;;;;;;;5.90;2.47;;;-2.10;99.90;;;;;;5001395;28;20054;-83
2024/01/09 11:48:56;;;;;;;5.35;2.47;;;-2.10;99.90;;;;;;4992162;28;20054;-82
2024/01/09 11:51:23;;;;;;;4.80;2.30;;;-2.00;99.90;;;;;;5007568;28;20121;-83
2024/01/09 11:53:50;;;;;;;4.60;2.15;;;-2.00;99.90;;;;;;4990985;28;20120;-84
2024/01/09 11:56:18;;;;;;;6.22;2.17;;;-2.00;99.90;;;;;;5000041;28;20038;-84
2024/01/09 11:58:49;;;;;;;4.70;2.22;;;-1.90;99.90;;;;;;4984628;28;20093;-84
2024/01/09 12:01:19;;;;;;;6.53;2.10;;;-1.90;99.90;;;;;;4991589;28;20333;-84
2024/01/09 12:03:54;;;;;;;3.83;1.98;;;-1.90;99.90;;;;;;5026865;28;20104;-84
2024/01/09 12:06:29;;;;;;;5.70;2.50;;;-1.80;99.90;;;;;;5020629;28;20046;-84
2024/01/09 12:08:55;;;;;;;4.43;2.30;;;-1.60;99.90;;;;;;4978703;28;20137;-84
2024/01/09 12:11:22;;;;;;;5.38;1.98;;;-1.70;99.90;;;;;;5009888;28;20380;-84
2024/01/09 12:13:59;;;;;;;4.88;2.35;;;-1.00;99.90;;;;;;5008780;28;20403;-84
2024/01/09 12:16:26;;;;;;;4.70;2.20;;;-1.70;99.90;;;;;;4995473;28;20431;-84
2024/01/09 12:18:56;;;;;;;4.03;1.95;;;-1.60;99.90;;;;;;4992013;28;20074;-84
2024/01/09 12:21:26;;;;;;;5.07;2.20;;;-1.60;99.90;;;;;;5010208;28;20125;-84
2024/01/09 12:23:55;;;;;;;5.75;2.13;;;-0.40;99.90;;;;;;4995318;28;20089;-84
2024/01/09 12:26:24;;;;;;;5.00;2.20;;;-1.60;99.90;;;;;;5011377;28;20049;-84
2024/01/09 12:28:51;;;;;;;4.78;2.22;;;-1.60;99.90;;;;;;5024090;28;20491;-84
2024/01/09 12:31:18;;;;;;;4.45;2.13;;;-0.90;99.90;;;;;;4982710;28;20407;-84
2024/01/09 12:33:45;;;;;;;4.43;2.10;;;-1.60;99.90;;;;;;5016713;28;20504;-84
2024/01/09 12:36:12;;;;;;;5.53;2.03;;;-1.60;99.90;;;;;;5013006;28;20045;-84
2024/01/09 12:38:39;;;;;;;4.72;2.30;;;-1.50;99.90;;;;;;5005045;28;20045;-84
2024/01/09 12:41:06;;;;;;;6.13;1.95;;;-1.60;99.90;;;;;;5006411;28;20085;-84
2024/01/09 12:43:33;;;;;;;5.05;2.05;;;-0.90;99.90;;;;;;4998404;28;20088;-83
2024/01/09 12:46:01;;;;;;;4.30;2.05;;;-1.50;99.90;;;;;;4995474;28;20172;-84